sensor_id;sensor_type;location;lat;lon;timestamp;pressure;altitude;pressure_sealevel;temperature;humidity
11017;BME280;54687;50.800;6.772;2023-10-31T00:02:22;94804.53;;;-144.06;27.94
11017;BME280;54687;50.800;6.772;2023-10-31T00:04:48;94757.94;;;-144.06;28.00
11017;BME280;54687;50.800;6.772;2023-10-31T00:07:16;94745.25;;;-144.06;27.87
11017;BME280;54687;50.800;6.772;2023-10-31T00:09:43;94700.78;;;-144.06;27.91
11017;BME280;54687;50.800;6.772;2023-10-31T00:12:09;94721.97;;;-144.06;27.89
11017;BME280;54687;50.800;6.772;2023-10-31T00:14:36;94726.19;;;-144.06;27.71
11017;BME280;54687;50.800;6.772;2023-10-31T00:17:03;94777.00;;;-144.06;27.73
11017;BME280;54687;50.800;6.772;2023-10-31T00:19:29;94719.84;;;-144.06;27.61
11017;BME280;54687;50.800;6.772;2023-10-31T00:21:56;94730.44;;;-144.06;27.89
11017;BME280;54687;50.800;6.772;2023-10-31T00:24:24;94832.03;;;-144.06;27.70
11017;BME280;54687;50.800;6.772;2023-10-31T00:26:51;94793.94;;;-144.06;27.99
11017;BME280;54687;50.800;6.772;2023-10-31T00:29:17;94755.84;;;-144.06;27.84
11017;BME280;54687;50.800;6.772;2023-10-31T00:31:44;94709.25;;;-144.06;27.60
11017;BME280;54687;50.800;6.772;2023-10-31T00:34:11;94832.03;;;-144.06;27.78
11017;BME280;54687;50.800;6.772;2023-10-31T00:36:37;94851.09;;;-144.06;27.74
11017;BME280;54687;50.800;6.772;2023-10-31T00:39:04;94916.72;;;-144.06;28.08
11017;BME280;54687;50.800;6.772;2023-10-31T00:41:32;94895.53;;;-144.06;27.87
11017;BME280;54687;50.800;6.772;2023-10-31T00:43:58;94910.38;;;-144.06;27.94
11017;BME280;54687;50.800;6.772;2023-10-31T00:46:25;94899.78;;;-144.06;28.05
11017;BME280;54687;50.800;6.772;2023-10-31T00:48:52;94863.78;;;-144.06;28.06
11017;BME280;54687;50.800;6.772;2023-10-31T00:51:18;94853.22;;;-144.06;27.95
11017;BME280;54687;50.800;6.772;2023-10-31T00:53:45;94908.25;;;-144.06;27.80
11017;BME280;54687;50.800;6.772;2023-10-31T00:56:12;94956.94;;;-144.06;28.06
11017;BME280;54687;50.800;6.772;2023-10-31T00:58:40;94984.47;;;-144.06;28.01
11017;BME280;54687;50.800;6.772;2023-10-31T01:01:06;94887.09;;;-144.06;27.70
11017;BME280;54687;50.800;6.772;2023-10-31T01:03:33;94925.19;;;-144.06;27.85
11017;BME280;54687;50.800;6.772;2023-10-31T01:05:59;94965.41;;;-144.06;27.91
11017;BME280;54687;50.800;6.772;2023-10-31T01:08:26;94904.00;;;-144.06;27.82
11017;BME280;54687;50.800;6.772;2023-10-31T01:10:53;94935.78;;;-144.06;27.70
11017;BME280;54687;50.800;6.772;2023-10-31T01:13:19;94929.41;;;-144.06;27.75
11017;BME280;54687;50.800;6.772;2023-10-31T01:15:47;94916.72;;;-144.06;27.71
11017;BME280;54687;50.800;6.772;2023-10-31T01:18:14;94959.06;;;-144.06;27.88
11017;BME280;54687;50.800;6.772;2023-10-31T01:20:41;94942.13;;;-144.06;27.81
11017;BME280;54687;50.800;6.772;2023-10-31T01:23:07;94973.88;;;-144.06;27.81
11017;BME280;54687;50.800;6.772;2023-10-31T01:25:34;94967.53;;;-144.06;27.75
11017;BME280;54687;50.800;6.772;2023-10-31T01:28:00;95001.41;;;-144.06;27.82
11017;BME280;54687;50.800;6.772;2023-10-31T01:30:28;95031.03;;;-144.06;27.68
11017;BME280;54687;50.800;6.772;2023-10-31T01:32:58;95039.50;;;-144.06;27.84
11017;BME280;54687;50.800;6.772;2023-10-31T01:35:27;95039.50;;;-144.06;27.70
11017;BME280;54687;50.800;6.772;2023-10-31T01:37:56;95043.75;;;-144.06;27.82
11017;BME280;54687;50.800;6.772;2023-10-31T01:40:27;95011.97;;;-144.06;27.71
11017;BME280;54687;50.800;6.772;2023-10-31T01:42:57;95056.44;;;-144.06;27.74
11017;BME280;54687;50.800;6.772;2023-10-31T01:45:27;95073.38;;;-144.06;27.77
11017;BME280;54687;50.800;6.772;2023-10-31T01:47:56;95122.06;;;-144.06;27.68
11017;BME280;54687;50.800;6.772;2023-10-31T01:50:27;95086.06;;;-144.06;27.86
11017;BME280;54687;50.800;6.772;2023-10-31T01:52:58;95090.31;;;-144.06;27.92
11017;BME280;54687;50.800;6.772;2023-10-31T01:55:29;95088.19;;;-144.06;27.78
11017;BME280;54687;50.800;6.772;2023-10-31T01:57:59;95124.19;;;-144.06;27.84
11017;BME280;54687;50.800;6.772;2023-10-31T02:00:27;95162.28;;;-144.06;27.78
11017;BME280;54687;50.800;6.772;2023-10-31T02:03:14;95208.88;;;-144.06;27.88
11017;BME280;54687;50.800;6.772;2023-10-31T02:05:42;95183.47;;;-144.06;27.98
11017;BME280;54687;50.800;6.772;2023-10-31T02:08:10;95221.56;;;-144.06;27.98
11017;BME280;54687;50.800;6.772;2023-10-31T02:10:38;95242.75;;;-144.06;27.94
11017;BME280;54687;50.800;6.772;2023-10-31T02:13:11;95170.75;;;-144.06;27.99
11017;BME280;54687;50.800;6.772;2023-10-31T02:15:38;95166.53;;;-144.06;27.99
11017;BME280;54687;50.800;6.772;2023-10-31T02:18:05;95175.00;;;-144.06;28.21
11017;BME280;54687;50.800;6.772;2023-10-31T02:20:32;95215.22;;;-144.06;28.04
11017;BME280;54687;50.800;6.772;2023-10-31T02:23:00;95191.94;;;-144.06;28.11
11017;BME280;54687;50.800;6.772;2023-10-31T02:25:27;95183.47;;;-144.06;28.36
11017;BME280;54687;50.800;6.772;2023-10-31T02:27:53;95221.56;;;-144.06;28.07
11017;BME280;54687;50.800;6.772;2023-10-31T02:30:20;95230.03;;;-144.06;28.14
11017;BME280;54687;50.800;6.772;2023-10-31T02:32:47;95246.97;;;-144.06;28.09
11017;BME280;54687;50.800;6.772;2023-10-31T02:35:15;95238.50;;;-144.06;28.14
11017;BME280;54687;50.800;6.772;2023-10-31T02:37:43;95263.91;;;-144.06;28.08
11017;BME280;54687;50.800;6.772;2023-10-31T02:40:12;95259.69;;;-144.06;28.06
11017;BME280;54687;50.800;6.772;2023-10-31T02:42:39;95246.97;;;-144.06;28.18
11017;BME280;54687;50.800;6.772;2023-10-31T02:45:06;95274.50;;;-144.06;27.96
11017;BME280;54687;50.800;6.772;2023-10-31T02:47:33;95263.91;;;-144.06;28.01
11017;BME280;54687;50.800;6.772;2023-10-31T02:50:00;95255.44;;;-144.06;28.20
11017;BME280;54687;50.800;6.772;2023-10-31T02:52:27;95293.56;;;-144.06;28.16
11017;BME280;54687;50.800;6.772;2023-10-31T02:54:54;95227.94;;;-144.06;28.16
11017;BME280;54687;50.800;6.772;2023-10-31T02:57:22;95240.63;;;-144.06;28.27
11017;BME280;54687;50.800;6.772;2023-10-31T02:59:48;95225.81;;;-144.06;28.01
11017;BME280;54687;50.800;6.772;2023-10-31T03:02:15;95225.81;;;-144.06;28.05
11017;BME280;54687;50.800;6.772;2023-10-31T03:04:42;95196.16;;;-144.06;28.13
11017;BME280;54687;50.800;6.772;2023-10-31T03:07:08;95183.47;;;-144.06;27.95
11017;BME280;54687;50.800;6.772;2023-10-31T03:09:35;95242.75;;;-144.06;28.06
11017;BME280;54687;50.800;6.772;2023-10-31T03:12:01;95234.28;;;-144.06;28.02
11017;BME280;54687;50.800;6.772;2023-10-31T03:14:30;95259.69;;;-144.06;28.18
11017;BME280;54687;50.800;6.772;2023-10-31T03:16:56;95240.63;;;-144.06;28.06
11017;BME280;54687;50.800;6.772;2023-10-31T03:19:23;95211.00;;;-144.06;27.78
11017;BME280;54687;50.800;6.772;2023-10-31T03:21:49;95200.41;;;-144.06;28.27
11017;BME280;54687;50.800;6.772;2023-10-31T03:24:16;95211.00;;;-144.06;28.06
11017;BME280;54687;50.800;6.772;2023-10-31T03:26:43;95141.13;;;-144.06;28.10
11017;BME280;54687;50.800;6.772;2023-10-31T03:29:10;95149.59;;;-144.06;28.01
11017;BME280;54687;50.800;6.772;2023-10-31T03:31:38;95160.19;;;-144.06;28.01
11017;BME280;54687;50.800;6.772;2023-10-31T03:34:04;95200.41;;;-144.06;28.11
11017;BME280;54687;50.800;6.772;2023-10-31T03:36:31;95145.34;;;-144.06;28.02
11017;BME280;54687;50.800;6.772;2023-10-31T03:38:57;95132.66;;;-144.06;27.96
11017;BME280;54687;50.800;6.772;2023-10-31T03:41:24;95130.53;;;-144.06;28.02
11017;BME280;54687;50.800;6.772;2023-10-31T03:43:51;95090.31;;;-144.06;27.84
11017;BME280;54687;50.800;6.772;2023-10-31T03:46:17;95103.00;;;-144.06;27.86
11017;BME280;54687;50.800;6.772;2023-10-31T03:48:45;95056.44;;;-144.06;27.92
11017;BME280;54687;50.800;6.772;2023-10-31T03:51:12;95096.66;;;-144.06;27.70
11017;BME280;54687;50.800;6.772;2023-10-31T03:53:39;95043.75;;;-144.06;27.75
11017;BME280;54687;50.800;6.772;2023-10-31T03:56:05;95098.78;;;-144.06;27.85
11017;BME280;54687;50.800;6.772;2023-10-31T03:58:32;95043.75;;;-144.06;27.84
11017;BME280;54687;50.800;6.772;2023-10-31T04:00:59;95047.97;;;-144.06;27.80
11017;BME280;54687;50.800;6.772;2023-10-31T04:03:25;95047.97;;;-144.06;27.72
11017;BME280;54687;50.800;6.772;2023-10-31T04:05:54;95014.09;;;-144.06;27.84
11017;BME280;54687;50.800;6.772;2023-10-31T04:08:20;95031.03;;;-144.06;27.79
11017;BME280;54687;50.800;6.772;2023-10-31T04:10:47;94997.16;;;-144.06;27.80
11017;BME280;54687;50.800;6.772;2023-10-31T04:13:14;95020.44;;;-144.06;27.72
11017;BME280;54687;50.800;6.772;2023-10-31T04:15:40;95022.56;;;-144.06;27.82
11017;BME280;54687;50.800;6.772;2023-10-31T04:18:07;95018.34;;;-144.06;27.84
11017;BME280;54687;50.800;6.772;2023-10-31T04:20:34;95107.25;;;-144.06;27.79
11017;BME280;54687;50.800;6.772;2023-10-31T04:23:01;95071.25;;;-144.06;27.70
11017;BME280;54687;50.800;6.772;2023-10-31T04:25:28;95075.50;;;-144.06;27.63
11017;BME280;54687;50.800;6.772;2023-10-31T04:27:55;95158.06;;;-144.06;27.85
11017;BME280;54687;50.800;6.772;2023-10-31T04:30:21;95098.78;;;-144.06;27.89
11017;BME280;54687;50.800;6.772;2023-10-31T04:32:48;95081.84;;;-144.06;27.89
11017;BME280;54687;50.800;6.772;2023-10-31T04:35:15;95103.00;;;-144.06;27.85
11017;BME280;54687;50.800;6.772;2023-10-31T04:37:42;95136.88;;;-144.06;27.82
11017;BME280;54687;50.800;6.772;2023-10-31T04:40:11;95280.84;;;-144.06;27.99
11017;BME280;54687;50.800;6.772;2023-10-31T04:42:39;95145.34;;;-144.06;27.99
11017;BME280;54687;50.800;6.772;2023-10-31T04:45:07;95164.41;;;-144.06;28.12
11017;BME280;54687;50.800;6.772;2023-10-31T04:47:33;95096.66;;;-144.06;27.71
11017;BME280;54687;50.800;6.772;2023-10-31T04:50:01;95056.44;;;-144.06;27.73
11017;BME280;54687;50.800;6.772;2023-10-31T04:52:28;95094.53;;;-144.06;27.75
11017;BME280;54687;50.800;6.772;2023-10-31T04:54:55;95098.78;;;-144.06;27.77
11017;BME280;54687;50.800;6.772;2023-10-31T04:57:23;95149.59;;;-144.06;27.76
11017;BME280;54687;50.800;6.772;2023-10-31T04:59:49;95075.50;;;-144.06;27.75
11017;BME280;54687;50.800;6.772;2023-10-31T05:02:17;95124.19;;;-144.06;27.66
11017;BME280;54687;50.800;6.772;2023-10-31T05:04:44;95122.06;;;-144.06;27.75
11017;BME280;54687;50.800;6.772;2023-10-31T05:07:11;95162.28;;;-144.06;27.97
11017;BME280;54687;50.800;6.772;2023-10-31T05:09:38;95204.63;;;-144.06;27.95
11017;BME280;54687;50.800;6.772;2023-10-31T05:12:07;95136.88;;;-144.06;27.81
11017;BME280;54687;50.800;6.772;2023-10-31T05:14:35;95168.66;;;-144.06;27.91
11017;BME280;54687;50.800;6.772;2023-10-31T05:17:02;95246.97;;;-144.06;28.05
11017;BME280;54687;50.800;6.772;2023-10-31T05:19:29;95136.88;;;-144.06;28.01
11017;BME280;54687;50.800;6.772;2023-10-31T05:21:56;95119.94;;;-144.06;28.05
11017;BME280;54687;50.800;6.772;2023-10-31T05:24:22;95151.72;;;-144.06;27.98
11017;BME280;54687;50.800;6.772;2023-10-31T05:26:49;95132.66;;;-144.06;27.86
11017;BME280;54687;50.800;6.772;2023-10-31T05:29:16;95122.06;;;-144.06;27.83
11017;BME280;54687;50.800;6.772;2023-10-31T05:31:43;95094.53;;;-144.06;27.83
11017;BME280;54687;50.800;6.772;2023-10-31T05:34:10;95111.47;;;-144.06;27.84
11017;BME280;54687;50.800;6.772;2023-10-31T05:36:36;95105.13;;;-144.06;27.77
11017;BME280;54687;50.800;6.772;2023-10-31T05:39:03;95117.84;;;-144.06;27.77
11017;BME280;54687;50.800;6.772;2023-10-31T05:41:30;95124.19;;;-144.06;27.68
11017;BME280;54687;50.800;6.772;2023-10-31T05:43:57;95111.47;;;-144.06;27.68
11017;BME280;54687;50.800;6.772;2023-10-31T05:46:24;95151.72;;;-144.06;27.75
11017;BME280;54687;50.800;6.772;2023-10-31T05:48:53;95141.13;;;-144.06;27.84
11017;BME280;54687;50.800;6.772;2023-10-31T05:51:19;95147.47;;;-144.06;27.89
11017;BME280;54687;50.800;6.772;2023-10-31T05:53:48;95175.00;;;-144.06;27.94
11017;BME280;54687;50.800;6.772;2023-10-31T05:56:15;95225.81;;;-144.06;27.84
11017;BME280;54687;50.800;6.772;2023-10-31T05:58:42;95136.88;;;-144.06;27.92
11017;BME280;54687;50.800;6.772;2023-10-31T06:01:09;95187.69;;;-144.06;27.82
11017;BME280;54687;50.800;6.772;2023-10-31T06:03:36;95244.88;;;-144.06;28.14
11017;BME280;54687;50.800;6.772;2023-10-31T06:06:06;95217.34;;;-144.06;27.89
11017;BME280;54687;50.800;6.772;2023-10-31T06:08:33;95227.94;;;-144.06;27.89
11017;BME280;54687;50.800;6.772;2023-10-31T06:11:00;95175.00;;;-144.06;27.87
11017;BME280;54687;50.800;6.772;2023-10-31T06:13:27;95187.69;;;-144.06;28.14
11017;BME280;54687;50.800;6.772;2023-10-31T06:15:55;95194.06;;;-144.06;27.89
11017;BME280;54687;50.800;6.772;2023-10-31T06:18:23;95232.16;;;-144.06;27.89
11017;BME280;54687;50.800;6.772;2023-10-31T06:20:49;95208.88;;;-144.06;27.82
11017;BME280;54687;50.800;6.772;2023-10-31T06:23:17;95191.94;;;-144.06;27.87
11017;BME280;54687;50.800;6.772;2023-10-31T06:25:44;95217.34;;;-144.06;27.77
11017;BME280;54687;50.800;6.772;2023-10-31T06:28:11;95244.88;;;-144.06;27.88
11017;BME280;54687;50.800;6.772;2023-10-31T06:30:38;95215.22;;;-144.06;27.81
11017;BME280;54687;50.800;6.772;2023-10-31T06:33:04;95183.47;;;-144.06;27.77
11017;BME280;54687;50.800;6.772;2023-10-31T06:35:32;95204.63;;;-144.06;27.75
11017;BME280;54687;50.800;6.772;2023-10-31T06:37:59;95175.00;;;-144.06;27.71
11017;BME280;54687;50.800;6.772;2023-10-31T06:40:28;95166.53;;;-144.06;27.69
11017;BME280;54687;50.800;6.772;2023-10-31T06:42:54;95107.25;;;-144.06;27.79
11017;BME280;54687;50.800;6.772;2023-10-31T06:45:21;95105.13;;;-144.06;27.75
11017;BME280;54687;50.800;6.772;2023-10-31T06:47:47;95141.13;;;-144.06;27.79
11017;BME280;54687;50.800;6.772;2023-10-31T06:50:14;95132.66;;;-144.06;27.71
11017;BME280;54687;50.800;6.772;2023-10-31T06:52:41;95113.59;;;-144.06;27.54
11017;BME280;54687;50.800;6.772;2023-10-31T06:55:08;95098.78;;;-144.06;27.73
11017;BME280;54687;50.800;6.772;2023-10-31T06:57:36;95073.38;;;-144.06;27.62
11017;BME280;54687;50.800;6.772;2023-10-31T07:00:04;95094.53;;;-144.06;27.71
11017;BME280;54687;50.800;6.772;2023-10-31T07:02:33;95090.31;;;-144.06;27.67
11017;BME280;54687;50.800;6.772;2023-10-31T07:05:00;95014.09;;;-144.06;27.52
11017;BME280;54687;50.800;6.772;2023-10-31T07:07:27;95067.03;;;-144.06;27.39
11017;BME280;54687;50.800;6.772;2023-10-31T07:09:53;95098.78;;;-144.06;27.56
11017;BME280;54687;50.800;6.772;2023-10-31T07:12:20;95160.19;;;-144.06;27.50
11017;BME280;54687;50.800;6.772;2023-10-31T07:14:48;95158.06;;;-144.06;27.66
11017;BME280;54687;50.800;6.772;2023-10-31T07:17:15;95107.25;;;-144.06;27.58
11017;BME280;54687;50.800;6.772;2023-10-31T07:19:41;95075.50;;;-144.06;27.59
11017;BME280;54687;50.800;6.772;2023-10-31T07:22:08;95090.31;;;-144.06;27.32
11017;BME280;54687;50.800;6.772;2023-10-31T07:24:34;95105.13;;;-144.06;27.55
11017;BME280;54687;50.800;6.772;2023-10-31T07:27:01;95092.44;;;-144.06;27.42
11017;BME280;54687;50.800;6.772;2023-10-31T07:29:28;95098.78;;;-144.06;27.68
11017;BME280;54687;50.800;6.772;2023-10-31T07:31:56;95103.00;;;-144.06;27.45
11017;BME280;54687;50.800;6.772;2023-10-31T07:34:22;95162.28;;;-144.06;27.60
11017;BME280;54687;50.800;6.772;2023-10-31T07:36:49;95128.41;;;-144.06;27.48
11017;BME280;54687;50.800;6.772;2023-10-31T07:39:16;95113.59;;;-144.06;27.54
11017;BME280;54687;50.800;6.772;2023-10-31T07:41:42;95056.44;;;-144.06;27.62
11017;BME280;54687;50.800;6.772;2023-10-31T07:44:09;95111.47;;;-144.06;27.62
11017;BME280;54687;50.800;6.772;2023-10-31T07:46:36;95045.84;;;-144.06;27.45
11017;BME280;54687;50.800;6.772;2023-10-31T07:49:04;95001.41;;;-144.06;27.40
11017;BME280;54687;50.800;6.772;2023-10-31T07:51:31;95020.44;;;-144.06;27.40
11017;BME280;54687;50.800;6.772;2023-10-31T07:53:57;94940.00;;;-144.06;27.35
11017;BME280;54687;50.800;6.772;2023-10-31T07:56:24;94935.78;;;-144.06;27.18
11017;BME280;54687;50.800;6.772;2023-10-31T07:58:51;95056.44;;;-144.06;27.46
11017;BME280;54687;50.800;6.772;2023-10-31T08:01:18;94918.84;;;-144.06;27.43
11017;BME280;54687;50.800;6.772;2023-10-31T08:03:45;94971.75;;;-144.06;27.52
11017;BME280;54687;50.800;6.772;2023-10-31T08:06:14;94914.59;;;-144.06;27.06
11017;BME280;54687;50.800;6.772;2023-10-31T08:08:41;94891.31;;;-144.06;27.22
11017;BME280;54687;50.800;6.772;2023-10-31T08:11:08;94895.53;;;-144.06;27.25
11017;BME280;54687;50.800;6.772;2023-10-31T08:13:35;94908.25;;;-144.06;27.16
11017;BME280;54687;50.800;6.772;2023-10-31T08:16:03;94844.75;;;-144.06;27.14
11017;BME280;54687;50.800;6.772;2023-10-31T08:18:30;94844.75;;;-144.06;26.89
11017;BME280;54687;50.800;6.772;2023-10-31T08:20:57;94815.09;;;-144.06;27.07
11017;BME280;54687;50.800;6.772;2023-10-31T08:23:25;94783.34;;;-144.06;26.98
11017;BME280;54687;50.800;6.772;2023-10-31T08:25:52;94726.19;;;-144.06;26.98
11017;BME280;54687;50.800;6.772;2023-10-31T08:28:19;94753.72;;;-144.06;26.89
11017;BME280;54687;50.800;6.772;2023-10-31T08:30:46;94764.28;;;-144.06;27.02
11017;BME280;54687;50.800;6.772;2023-10-31T08:33:13;94705.03;;;-144.06;26.78
11017;BME280;54687;50.800;6.772;2023-10-31T08:35:40;94643.63;;;-144.06;26.49
11017;BME280;54687;50.800;6.772;2023-10-31T08:38:08;94607.66;;;-144.06;26.79
11017;BME280;54687;50.800;6.772;2023-10-31T08:40:36;94599.19;;;-144.06;26.53
11017;BME280;54687;50.800;6.772;2023-10-31T08:43:02;94586.47;;;-144.06;26.66
11017;BME280;54687;50.800;6.772;2023-10-31T08:45:31;94628.81;;;-144.06;26.35
11017;BME280;54687;50.800;6.772;2023-10-31T08:47:58;94633.06;;;-144.06;26.44
11017;BME280;54687;50.800;6.772;2023-10-31T08:50:25;94626.69;;;-144.06;26.22
11017;BME280;54687;50.800;6.772;2023-10-31T08:52:51;94633.06;;;-144.06;26.37
11017;BME280;54687;50.800;6.772;2023-10-31T08:55:18;94709.25;;;-144.06;26.30
11017;BME280;54687;50.800;6.772;2023-10-31T08:57:46;94692.31;;;-144.06;26.46
11017;BME280;54687;50.800;6.772;2023-10-31T09:00:14;94692.31;;;-144.06;26.45
11017;BME280;54687;50.800;6.772;2023-10-31T09:02:45;94645.75;;;-144.06;26.47
11017;BME280;54687;50.800;6.772;2023-10-31T09:05:11;94666.91;;;-144.06;26.54
11017;BME280;54687;50.800;6.772;2023-10-31T09:07:38;94789.69;;;-144.06;26.37
11017;BME280;54687;50.800;6.772;2023-10-31T09:10:05;94787.59;;;-144.06;26.30
11017;BME280;54687;50.800;6.772;2023-10-31T09:12:32;94747.38;;;-144.06;26.41
11017;BME280;54687;50.800;6.772;2023-10-31T09:15:00;94702.91;;;-144.06;26.61
11017;BME280;54687;50.800;6.772;2023-10-31T09:17:26;94755.84;;;-144.06;26.15
11017;BME280;54687;50.800;6.772;2023-10-31T09:19:53;94732.53;;;-144.06;26.48
11017;BME280;54687;50.800;6.772;2023-10-31T09:22:20;94738.91;;;-144.06;26.50
11017;BME280;54687;50.800;6.772;2023-10-31T09:24:46;94817.22;;;-144.06;26.40
11017;BME280;54687;50.800;6.772;2023-10-31T09:27:13;94793.94;;;-144.06;26.22
11017;BME280;54687;50.800;6.772;2023-10-31T09:29:40;94766.41;;;-144.06;26.34
11017;BME280;54687;50.800;6.772;2023-10-31T09:32:08;94715.59;;;-144.06;26.44
11017;BME280;54687;50.800;6.772;2023-10-31T09:34:35;94662.69;;;-144.06;26.20
11017;BME280;54687;50.800;6.772;2023-10-31T09:37:01;94719.84;;;-144.06;26.23
11017;BME280;54687;50.800;6.772;2023-10-31T09:39:28;94664.81;;;-144.06;26.14
11017;BME280;54687;50.800;6.772;2023-10-31T09:41:55;94618.22;;;-144.06;26.16
11017;BME280;54687;50.800;6.772;2023-10-31T09:44:24;94582.25;;;-144.06;25.98
11017;BME280;54687;50.800;6.772;2023-10-31T09:46:57;94463.72;;;-144.06;25.85
11017;BME280;54687;50.800;6.772;2023-10-31T09:49:25;94522.97;;;-144.06;26.05
11017;BME280;54687;50.800;6.772;2023-10-31T09:51:52;94508.16;;;-144.06;25.78
11017;BME280;54687;50.800;6.772;2023-10-31T09:54:20;94484.88;;;-144.06;25.60
11017;BME280;54687;50.800;6.772;2023-10-31T09:56:47;94497.56;;;-144.06;25.54
11017;BME280;54687;50.800;6.772;2023-10-31T09:59:14;94499.69;;;-144.06;25.75
11017;BME280;54687;50.800;6.772;2023-10-31T10:01:42;94484.88;;;-144.06;25.77
11017;BME280;54687;50.800;6.772;2023-10-31T10:04:09;94438.31;;;-144.06;25.85
11017;BME280;54687;50.800;6.772;2023-10-31T10:06:48;94491.22;;;-144.06;25.66
11017;BME280;54687;50.800;6.772;2023-10-31T10:09:15;94444.66;;;-144.06;25.56
11017;BME280;54687;50.800;6.772;2023-10-31T10:11:42;94391.75;;;-144.06;25.34
11017;BME280;54687;50.800;6.772;2023-10-31T10:14:11;94415.03;;;-144.06;25.26
11017;BME280;54687;50.800;6.772;2023-10-31T10:16:38;94347.28;;;-144.06;25.34
11017;BME280;54687;50.800;6.772;2023-10-31T10:19:15;94294.38;;;-144.06;25.09
11017;BME280;54687;50.800;6.772;2023-10-31T10:21:51;94355.75;;;-144.06;25.45
11017;BME280;54687;50.800;6.772;2023-10-31T10:24:19;94307.06;;;-144.06;25.46
11017;BME280;54687;50.800;6.772;2023-10-31T10:26:46;94336.72;;;-144.06;25.32
11017;BME280;54687;50.800;6.772;2023-10-31T10:29:13;94326.13;;;-144.06;25.03
11017;BME280;54687;50.800;6.772;2023-10-31T10:31:39;94385.41;;;-144.06;25.33
11017;BME280;54687;50.800;6.772;2023-10-31T10:34:07;94455.25;;;-144.06;25.03
11017;BME280;54687;50.800;6.772;2023-10-31T10:36:34;94459.47;;;-144.06;25.10
11017;BME280;54687;50.800;6.772;2023-10-31T10:39:02;94472.19;;;-144.06;25.10
11017;BME280;54687;50.800;6.772;2023-10-31T10:41:32;94408.69;;;-144.06;25.15
11017;BME280;54687;50.800;6.772;2023-10-31T10:44:04;94334.59;;;-144.06;25.27
11017;BME280;54687;50.800;6.772;2023-10-31T10:46:33;94349.41;;;-144.06;25.02
11017;BME280;54687;50.800;6.772;2023-10-31T10:49:03;94366.34;;;-144.06;25.20
11017;BME280;54687;50.800;6.772;2023-10-31T10:51:39;94362.09;;;-144.06;25.01
11017;BME280;54687;50.800;6.772;2023-10-31T10:54:15;94427.72;;;-144.06;25.24
11017;BME280;54687;50.800;6.772;2023-10-31T10:56:46;94353.66;;;-144.06;25.20
11017;BME280;54687;50.800;6.772;2023-10-31T10:59:21;94391.75;;;-144.06;24.86
11017;BME280;54687;50.800;6.772;2023-10-31T11:01:50;94366.34;;;-144.06;24.87
11017;BME280;54687;50.800;6.772;2023-10-31T11:04:18;94298.63;;;-144.06;24.95
11017;BME280;54687;50.800;6.772;2023-10-31T11:06:45;94330.38;;;-144.06;24.80
11017;BME280;54687;50.800;6.772;2023-10-31T11:09:14;94243.56;;;-144.06;25.21
11017;BME280;54687;50.800;6.772;2023-10-31T11:11:43;94180.09;;;-144.06;24.91
11017;BME280;54687;50.800;6.772;2023-10-31T11:14:15;94228.75;;;-144.06;25.05
11017;BME280;54687;50.800;6.772;2023-10-31T11:16:45;94152.56;;;-144.06;24.88
11017;BME280;54687;50.800;6.772;2023-10-31T11:19:15;94103.88;;;-144.06;24.99
11017;BME280;54687;50.800;6.772;2023-10-31T11:21:53;94133.53;;;-144.06;24.81
11017;BME280;54687;50.800;6.772;2023-10-31T11:24:22;94103.88;;;-144.06;24.58
11017;BME280;54687;50.800;6.772;2023-10-31T11:26:53;94129.28;;;-144.06;24.63
11017;BME280;54687;50.800;6.772;2023-10-31T11:29:19;94048.88;;;-144.06;24.66
11017;BME280;54687;50.800;6.772;2023-10-31T11:31:46;94086.97;;;-144.06;24.63
11017;BME280;54687;50.800;6.772;2023-10-31T11:34:16;94129.28;;;-144.06;24.68
11017;BME280;54687;50.800;6.772;2023-10-31T11:36:42;94173.72;;;-144.06;24.44
11017;BME280;54687;50.800;6.772;2023-10-31T11:39:12;94120.81;;;-144.06;24.91
11017;BME280;54687;50.800;6.772;2023-10-31T11:41:45;94086.97;;;-144.06;24.73
11017;BME280;54687;50.800;6.772;2023-10-31T11:44:15;94057.31;;;-144.06;24.72
11017;BME280;54687;50.800;6.772;2023-10-31T11:46:41;94065.78;;;-144.06;24.38
11017;BME280;54687;50.800;6.772;2023-10-31T11:49:08;94053.09;;;-144.06;24.63
11017;BME280;54687;50.800;6.772;2023-10-31T11:51:35;94040.41;;;-144.06;24.48
11017;BME280;54687;50.800;6.772;2023-10-31T11:54:02;94036.16;;;-144.06;24.72
11017;BME280;54687;50.800;6.772;2023-10-31T11:56:29;94050.97;;;-144.06;24.75
11017;BME280;54687;50.800;6.772;2023-10-31T11:58:58;94042.50;;;-144.06;24.58
11017;BME280;54687;50.800;6.772;2023-10-31T12:01:25;94086.97;;;-144.06;24.51
11017;BME280;54687;50.800;6.772;2023-10-31T12:03:51;94044.63;;;-144.06;24.48
11017;BME280;54687;50.800;6.772;2023-10-31T12:06:18;94148.34;;;-144.06;24.70
11017;BME280;54687;50.800;6.772;2023-10-31T12:08:47;94010.75;;;-144.06;24.55
11017;BME280;54687;50.800;6.772;2023-10-31T12:11:15;94004.41;;;-144.06;24.18
11017;BME280;54687;50.800;6.772;2023-10-31T12:13:52;94086.97;;;-144.06;24.35
11017;BME280;54687;50.800;6.772;2023-10-31T12:16:23;93976.91;;;-144.06;24.37
11017;BME280;54687;50.800;6.772;2023-10-31T12:18:54;93976.91;;;-144.06;24.70
11017;BME280;54687;50.800;6.772;2023-10-31T12:21:34;93938.81;;;-144.06;24.51
11017;BME280;54687;50.800;6.772;2023-10-31T12:24:03;93951.50;;;-144.06;24.73
11017;BME280;54687;50.800;6.772;2023-10-31T12:26:32;93926.09;;;-144.06;24.63
11017;BME280;54687;50.800;6.772;2023-10-31T12:29:09;94006.53;;;-144.06;24.38
11017;BME280;54687;50.800;6.772;2023-10-31T12:31:42;93888.00;;;-144.06;24.58
11017;BME280;54687;50.800;6.772;2023-10-31T12:34:09;93930.34;;;-144.06;24.15
11017;BME280;54687;50.800;6.772;2023-10-31T12:36:36;93890.13;;;-144.06;24.30
11017;BME280;54687;50.800;6.772;2023-10-31T12:39:04;93813.94;;;-144.06;24.38
11017;BME280;54687;50.800;6.772;2023-10-31T12:41:31;93820.28;;;-144.06;24.39
11017;BME280;54687;50.800;6.772;2023-10-31T12:43:58;93799.13;;;-144.06;24.17